Time;durP1;ratioP1;P1;durP2;ratioP2;P2;SDS_P1;SDS_P2;PMS_P1;PMS_P2;Temp;Humidity;BMP_temperature;BMP_pressure;BME280_temperature;BME280_humidity;BME280_pressure;Samples;Min_cycle;Max_cycle;Signal;HPM_P1;HPM_P2
2023/03/15 00:00:37;;;;;;;;;;;7.20;53.60;;;5.60;57.22;100364.50;12265091;19;19915;-85
2023/03/15 00:04:40;;;;;;;;;;;7.10;53.60;;;5.64;57.30;100384.19;12262495;19;19922;-84
2023/03/15 00:08:46;;;;;;;;;;;7.10;53.60;;;5.55;57.15;100381.97;12266773;19;19934;-84
2023/03/15 00:12:47;;;;;;;;;;;7.40;53.70;;;5.62;57.34;100396.38;12261968;19;19914;-84
2023/03/15 00:16:49;;;;;;;;;;;7.10;53.60;;;5.62;57.37;100400.72;12267098;19;20245;-84
2023/03/15 00:20:51;;;;;;;;;;;7.10;53.60;;;5.29;57.16;100357.09;12262426;19;20329;-84
2023/03/15 00:24:52;;;;;;;;;;;7.10;53.60;;;5.48;57.09;100398.66;12261487;19;20000;-84
2023/03/15 00:28:54;;;;;;;;;;;7.00;53.50;;;5.24;57.19;100372.00;12267039;19;19947;-84
2023/03/15 00:32:55;;;;;;;;;;;7.00;53.50;;;5.52;57.31;100419.19;12273791;19;19940;-84
2023/03/15 00:36:57;;;;;;;;;;;7.00;53.60;;;5.24;57.15;100380.59;12299948;19;19915;-85
2023/03/15 00:41:07;;;;;;;;;;;7.00;53.50;;;5.34;57.32;100422.50;12306940;19;19928;-85
2023/03/15 00:45:09;;;;;;;;;;;6.90;53.50;;;5.41;57.14;100438.66;12301738;19;19926;-85
2023/03/15 00:49:11;;;;;;;;;;;6.90;53.50;;;5.43;57.32;100450.63;12298901;19;19947;-85
2023/03/15 00:53:13;;;;;;;;;;;6.90;53.50;;;5.11;57.24;100410.44;12285900;19;19914;-85
2023/03/15 00:57:14;;;;;;;;;;;6.90;53.50;;;5.31;57.14;100457.09;12287509;19;20310;-85
2023/03/15 01:01:19;;;;;;;;;;;6.90;53.50;;;5.23;57.15;100445.34;12286328;19;19915;-85
2023/03/15 01:05:21;;;;;;;;;;;6.90;53.50;;;5.03;57.11;100425.41;12286174;19;19940;-85
2023/03/15 01:09:24;;;;;;;;;;;6.80;53.50;;;5.14;57.29;100451.72;12287007;19;19907;-84
2023/03/15 01:13:25;;;;;;;;;;;7.00;53.60;;;5.11;57.25;100457.03;12282624;19;19923;-85
2023/03/15 01:17:27;;;;;;;;;;;6.70;53.40;;;4.85;57.13;100430.34;12284116;19;20008;-85
2023/03/15 01:21:29;;;;;;;;;;;6.60;53.40;;;5.02;57.32;100471.16;12279794;19;20388;-86
2023/03/15 01:25:30;;;;;;;;;;;6.60;53.40;;;4.95;57.37;100472.25;12283241;19;19925;-85
2023/03/15 01:29:32;;;;;;;;;;;6.50;53.40;;;4.96;57.40;100483.44;12281555;19;20490;-85
2023/03/15 01:33:34;;;;;;;;;;;6.60;53.40;;;4.97;57.22;100500.66;12276749;19;19942;-85
2023/03/15 01:37:35;;;;;;;;;;;6.50;53.40;;;4.82;57.21;100487.38;12279688;19;19919;-85
2023/03/15 01:41:37;;;;;;;;;;;6.40;53.40;;;4.73;57.16;100482.53;12271830;19;20392;-85
2023/03/15 01:45:58;;;;;;;;;;;6.40;53.40;;;4.87;57.25;100516.50;12274286;19;19922;-84
2023/03/15 01:50:09;;;;;;;;;;;6.40;53.40;;;4.66;57.16;100487.06;12271133;19;20662;-84
2023/03/15 01:54:33;;;;;;;;;;;6.40;53.40;;;4.79;57.21;100526.28;12269738;19;19930;-84
2023/03/15 01:58:35;;;;;;;;;;;6.30;53.40;;;4.66;57.45;100504.31;12269089;19;19918;-85
2023/03/15 02:02:45;;;;;;;;;;;6.30;53.40;;;4.72;57.51;100521.38;12268279;19;19942;-85
2023/03/15 02:07:00;;;;;;;;;;;6.30;53.50;;;4.73;57.50;100518.75;12268043;19;20258;-84
2023/03/15 02:11:05;;;;;;;;;;;6.40;53.50;;;4.78;57.43;100531.50;12269249;19;20308;-85
2023/03/15 02:15:08;;;;;;;;;;;6.30;53.50;;;4.77;57.41;100537.56;12270126;19;19915;-84
2023/03/15 02:19:29;;;;;;;;;;;6.30;53.50;;;4.76;57.27;100544.50;12270813;19;19919;-85
2023/03/15 02:23:31;;;;;;;;;;;6.30;53.50;;;4.65;57.36;100524.16;12263573;19;19927;-84
2023/03/15 02:27:34;;;;;;;;;;;6.30;53.70;;;4.37;57.20;100485.44;12270156;19;19935;-84
2023/03/15 02:31:36;;;;;;;;;;;6.20;53.40;;;4.45;57.36;100508.47;12267405;19;19923;-85
2023/03/15 02:35:38;;;;;;;;;;;6.20;53.40;;;4.67;57.35;100544.78;12269355;19;19944;-84
2023/03/15 02:39:39;;;;;;;;;;;6.20;53.40;;;4.60;57.43;100543.31;12268036;19;20241;-84
2023/03/15 02:43:42;;;;;;;;;;;6.20;53.40;;;4.34;57.21;100500.22;12265113;19;20393;-84
2023/03/15 02:47:44;;;;;;;;;;;6.20;53.40;;;4.66;57.43;100558.63;12267040;19;19982;-84
2023/03/15 02:51:46;;;;;;;;;;;6.40;53.50;;;4.56;57.39;100552.06;12265787;19;19925;-84
2023/03/15 02:55:48;;;;;;;;;;;6.20;53.50;;;4.52;57.38;100553.09;12269546;19;19918;-84
2023/03/15 02:59:49;;;;;;;;;;;6.20;53.40;;;4.55;57.10;100560.72;12267048;19;20318;-84
2023/03/15 03:03:52;;;;;;;;;;;6.20;53.40;;;4.58;57.46;100573.56;12264975;19;20362;-84
2023/03/15 03:07:54;;;;;;;;;;;6.10;53.40;;;4.57;57.37;100587.41;12277729;19;20382;-84
2023/03/15 03:11:56;;;;;;;;;;;6.10;53.40;;;4.57;57.15;100598.56;12273720;19;19935;-85
2023/03/15 03:15:57;;;;;;;;;;;6.10;53.40;;;4.20;57.35;100549.78;12274095;19;19932;-85
2023/03/15 03:20:07;;;;;;;;;;;6.10;53.40;;;4.51;57.35;100610.84;12273959;19;19923;-85
2023/03/15 03:24:14;;;;;;;;;;;6.10;53.40;;;4.38;57.37;100595.75;12269552;19;19991;-84
2023/03/15 03:28:16;;;;;;;;;;;6.00;53.30;;;4.44;57.26;100623.97;12273033;19;19915;-84
2023/03/15 03:32:18;;;;;;;;;;;6.10;53.40;;;4.43;57.52;100624.88;12271064;19;20312;-85
2023/03/15 03:36:19;;;;;;;;;;;6.20;53.50;;;4.37;57.23;100621.63;12275104;19;19918;-85
2023/03/15 03:40:21;;;;;;;;;;;6.00;53.40;;;4.37;57.40;100626.78;12274385;19;19970;-85
2023/03/15 03:44:23;;;;;;;;;;;6.00;53.40;;;3.97;57.40;100573.78;12271496;19;19929;-85
2023/03/15 03:48:25;;;;;;;;;;;6.10;53.50;;;4.29;57.28;100627.03;12275312;19;19926;-86
2023/03/15 03:52:27;;;;;;;;;;;5.90;53.40;;;4.41;57.35;100646.50;12271160;19;19922;-85
2023/03/15 03:56:36;;;;;;;;;;;6.00;53.50;;;4.39;57.47;100641.38;12270601;19;19936;-85
2023/03/15 04:00:39;;;;;;;;;;;5.90;53.40;;;4.16;57.42;100605.06;12268617;19;19919;-85
2023/03/15 04:04:42;;;;;;;;;;;6.00;53.50;;;4.43;57.43;100652.47;12266205;19;20262;-85
2023/03/15 04:08:49;;;;;;;;;;;6.00;53.50;;;4.22;57.34;100620.38;12272168;19;19927;-85
2023/03/15 04:13:11;;;;;;;;;;;6.00;53.50;;;4.34;57.17;100644.97;12268102;19;19988;-85
2023/03/15 04:17:12;;;;;;;;;;;6.00;53.40;;;4.35;57.64;100668.22;12270444;19;19914;-85
2023/03/15 04:21:21;;;;;;;;;;;6.10;53.50;;;4.37;57.53;100665.56;12266902;19;20245;-85
2023/03/15 04:25:28;;;;;;;;;;;6.20;53.60;;;4.35;57.31;100668.22;12268272;19;20242;-85
2023/03/15 04:29:46;;;;;;;;;;;6.00;53.50;;;4.42;57.43;100679.19;12268332;19;19911;-85
2023/03/15 04:34:10;;;;;;;;;;;6.00;53.50;;;4.42;57.48;100681.78;12266167;19;19986;-85
2023/03/15 04:38:31;;;;;;;;;;;6.00;53.50;;;4.43;57.34;100692.09;12266555;19;19925;-84
2023/03/15 04:43:04;;;;;;;;;;;6.00;53.40;;;4.32;57.24;100682.94;12261892;19;20246;-84
2023/03/15 04:47:15;;;;;;;;;;;6.00;53.40;;;4.42;57.34;100713.66;12266404;19;19923;-85
2023/03/15 04:51:43;;;;;;;;;;;6.00;53.50;;;4.43;57.32;100706.78;12259492;19;19922;-85
2023/03/15 04:56:05;;;;;;;;;;;6.20;53.50;;;4.43;57.38;100715.38;12265248;19;20285;-84
2023/03/15 05:00:13;;;;;;;;;;;6.00;53.40;;;4.33;57.38;100703.59;12263966;19;20392;-85
2023/03/15 05:04:34;;;;;;;;;;;6.00;53.40;;;4.32;57.34;100716.56;12262052;19;19950;-85
2023/03/15 05:09:17;;;;;;;;;;;6.00;53.40;;;4.29;57.31;100714.91;12258701;19;19946;-85
2023/03/15 05:13:48;;;;;;;;;;;6.00;53.40;;;4.31;57.21;100727.78;12260599;19;19915;-85
2023/03/15 05:18:10;;;;;;;;;;;6.00;53.40;;;4.31;57.33;100744.16;12264087;19;19922;-85
2023/03/15 05:22:24;;;;;;;;;;;5.90;53.40;;;4.25;57.47;100741.75;12258322;19;20357;-85
2023/03/15 05:26:40;;;;;;;;;;;5.90;53.40;;;4.22;57.44;100744.44;12260346;19;20247;-85
2023/03/15 05:30:51;;;;;;;;;;;5.90;53.30;;;4.29;57.48;100763.19;12255008;19;19939;-85
2023/03/15 05:35:09;;;;;;;;;;;5.90;53.30;;;4.22;57.25;100772.84;12262019;19;19930;-85
2023/03/15 05:39:34;;;;;;;;;;;5.90;53.40;;;4.01;57.49;100750.19;12259418;19;19951;-85
2023/03/15 05:43:48;;;;;;;;;;;5.90;53.40;;;4.23;57.32;100800.38;12258219;19;19907;-85
2023/03/15 05:48:24;;;;;;;;;;;5.80;53.40;;;3.93;57.28;100768.50;12257013;19;19946;-85
2023/03/15 05:52:39;;;;;;;;;;;5.80;53.40;;;4.11;57.38;100808.50;12257919;19;19907;-85
2023/03/15 05:57:10;;;;;;;;;;;5.80;53.40;;;4.05;57.48;100795.72;12253583;19;19933;-85
2023/03/15 06:01:50;;;;;;;;;;;5.70;53.70;;;4.13;57.35;100812.72;12253474;19;19916;-85
2023/03/15 06:05:59;;;;;;;;;;;5.70;53.50;;;4.11;57.59;100822.25;12257777;19;19978;-85
2023/03/15 06:10:10;;;;;;;;;;;5.70;53.50;;;4.16;57.61;100832.47;12261787;19;19923;-86
2023/03/15 06:14:12;;;;;;;;;;;5.80;53.50;;;3.98;57.34;100803.63;12256967;19;19927;-86
2023/03/15 06:18:23;;;;;;;;;;;5.80;53.60;;;4.11;57.39;100832.59;12258634;19;19915;-85
2023/03/15 06:22:25;;;;;;;;;;;5.70;53.90;;;4.05;57.63;100835.34;12248887;19;20353;-88
2023/03/15 06:26:32;;;;;;;;;;;5.80;53.60;;;4.03;57.37;100821.63;12251117;19;19978;-88
2023/03/15 06:30:37;;;;;;;;;;;5.80;53.60;;;4.24;57.41;100871.88;12250450;19;19937;-88
2023/03/15 06:34:40;;;;;;;;;;;5.80;53.60;;;3.99;57.71;100827.72;12256788;19;20242;-86
2023/03/15 06:38:42;;;;;;;;;;;5.80;53.70;;;4.04;57.67;100828.47;12251063;19;19931;-86
2023/03/15 06:42:45;;;;;;;;;;;6.00;53.70;;;4.23;57.45;100865.00;12256279;19;19947;-85
2023/03/15 06:46:49;;;;;;;;;;;6.20;53.90;;;4.31;57.70;100878.56;12261402;19;19919;-87
2023/03/15 06:50:52;;;;;;;;;;;6.00;53.80;;;4.41;57.49;100905.03;12259966;19;19934;-85
2023/03/15 06:54:53;;;;;;;;;;;6.20;53.80;;;4.42;57.59;100892.03;12261441;19;19945;-85
2023/03/15 06:58:55;;;;;;;;;;;6.30;53.80;;;4.48;57.72;100905.69;12261470;19;19918;-85
2023/03/15 07:02:56;;;;;;;;;;;6.10;53.80;;;4.49;57.49;100913.44;12257472;19;19934;-85
2023/03/15 07:06:58;;;;;;;;;;;6.20;53.80;;;4.47;57.83;100915.19;12261353;19;19914;-85
2023/03/15 07:10:59;;;;;;;;;;;6.20;53.80;;;4.38;57.78;100890.44;12260631;19;19915;-86
2023/03/15 07:15:01;;;;;;;;;;;6.20;54.20;;;4.52;57.56;100913.34;12265811;19;20256;-85
2023/03/15 07:19:03;;;;;;;;;;;6.20;53.80;;;4.48;57.60;100901.38;12263545;19;20358;-87
2023/03/15 07:23:04;;;;;;;;;;;6.50;54.00;;;4.63;57.78;100933.75;12256080;19;19944;-86
2023/03/15 07:27:06;;;;;;;;;;;6.30;54.00;;;4.61;57.79;100920.84;12262961;19;19922;-89
2023/03/15 07:31:08;;;;;;;;;;;6.30;54.00;;;4.56;57.67;100904.59;12256275;19;19918;-86
2023/03/15 07:35:10;;;;;;;;;;;6.30;54.00;;;4.76;57.65;100932.50;12262107;19;20250;-87
2023/03/15 07:39:11;;;;;;;;;;;6.40;54.10;;;4.75;57.73;100920.47;12252942;19;19946;-86
2023/03/15 07:43:13;;;;;;;;;;;6.40;54.10;;;4.84;57.82;100924.53;12255036;19;19915;-88
2023/03/15 07:47:15;;;;;;;;;;;6.60;54.20;;;4.90;57.90;100926.94;12257340;19;20257;-87
2023/03/15 07:51:17;;;;;;;;;;;6.60;54.10;;;4.99;57.73;100943.94;12256768;19;20384;-86
2023/03/15 07:55:19;;;;;;;;;;;6.60;54.10;;;5.04;57.82;100936.91;12257992;19;19928;-86
2023/03/15 07:59:20;;;;;;;;;;;6.70;54.20;;;5.09;57.75;100938.47;12258057;19;19919;-85
2023/03/15 08:03:26;;;;;;;;;;;6.80;54.20;;;5.19;57.86;100940.81;12259668;19;19959;-87
2023/03/15 08:07:28;;;;;;;;;;;6.90;54.20;;;5.25;57.97;100950.97;12259877;19;19929;-86
2023/03/15 08:11:29;;;;;;;;;;;6.90;54.20;;;5.20;58.06;100930.38;12257049;19;20663;-86
2023/03/15 08:15:30;;;;;;;;;;;7.00;54.20;;;5.29;57.99;100939.59;12262545;19;19950;-86
2023/03/15 08:19:32;;;;;;;;;;;7.30;54.20;;;5.09;58.00;100903.97;12263392;19;19911;-86
2023/03/15 08:23:33;;;;;;;;;;;7.10;54.10;;;5.57;58.07;100969.88;12259315;19;19930;-86
2023/03/15 08:27:35;;;;;;;;;;;7.20;54.10;;;5.34;57.92;100927.38;12257660;19;19919;-86
2023/03/15 08:31:37;;;;;;;;;;;7.30;54.10;;;5.54;58.00;100957.88;12258608;19;20387;-85
2023/03/15 08:35:40;;;;;;;;;;;7.30;54.00;;;5.65;58.10;100960.13;12260632;19;19915;-87
2023/03/15 08:39:41;;;;;;;;;;;7.40;54.00;;;5.53;57.82;100949.22;12288529;19;19926;-86
2023/03/15 08:43:42;;;;;;;;;;;7.50;54.10;;;5.84;57.88;100981.13;12274831;19;19922;-86
2023/03/15 08:47:44;;;;;;;;;;;7.60;54.00;;;5.91;57.95;100992.97;12269736;19;19935;-86
2023/03/15 08:51:46;;;;;;;;;;;7.60;53.90;;;6.03;58.11;101005.59;12292086;19;19914;-87
2023/03/15 08:55:48;;;;;;;;;;;7.70;54.00;;;6.04;57.87;101002.09;12295665;19;19922;-86
2023/03/15 08:59:56;;;;;;;;;;;7.70;53.90;;;6.14;58.02;101011.28;12279246;19;19923;-86
2023/03/15 09:03:58;;;;;;;;;;;7.80;53.90;;;6.10;58.04;101003.63;12270777;19;19924;-87
2023/03/15 09:08:00;;;;;;;;;;;7.90;53.90;;;6.20;58.03;101021.44;12271185;19;19915;-86
2023/03/15 09:12:02;;;;;;;;;;;7.90;53.80;;;6.30;57.83;101021.16;12264542;19;19914;-86
2023/03/15 09:16:03;;;;;;;;;;;7.90;53.80;;;6.22;57.84;101020.56;12268708;19;19911;-87
2023/03/15 09:20:10;;;;;;;;;;;8.00;53.70;;;6.01;57.88;100985.81;12262497;19;19926;-87
2023/03/15 09:24:12;;;;;;;;;;;8.00;53.70;;;6.11;57.90;100998.41;12261158;19;20273;-87
2023/03/15 09:28:14;;;;;;;;;;;8.10;53.70;;;6.16;57.76;101000.88;12260480;19;19936;-87
2023/03/15 09:32:16;;;;;;;;;;;8.10;53.70;;;6.27;58.00;101031.63;12259081;19;19918;-86
2023/03/15 09:36:17;;;;;;;;;;;8.10;53.70;;;6.03;57.69;100991.78;12262179;19;19922;-86
2023/03/15 09:40:29;;;;;;;;;;;8.10;53.60;;;6.49;57.78;101066.34;12259831;19;19942;-86
2023/03/15 09:44:47;;;;;;;;;;;8.10;53.60;;;6.40;57.94;101053.69;12262318;19;19919;-87
2023/03/15 09:49:07;;;;;;;;;;;8.10;53.60;;;6.46;58.03;101063.00;12245666;19;19939;-87
2023/03/15 09:53:20;;;;;;;;;;;8.20;53.60;;;6.57;58.03;101077.31;12255437;19;20372;-87
2023/03/15 09:57:28;;;;;;;;;;;8.20;53.70;;;6.59;58.00;101067.75;12256742;19;19943;-86
2023/03/15 10:01:38;;;;;;;;;;;8.30;53.70;;;6.69;57.96;101075.22;12255446;19;19938;-86
2023/03/15 10:05:43;;;;;;;;;;;8.40;53.70;;;6.78;57.82;101080.13;12253107;19;20008;-86
2023/03/15 10:09:44;;;;;;;;;;;8.50;53.70;;;6.77;57.90;101079.25;12254657;19;19955;-88
2023/03/15 10:13:55;;;;;;;;;;;8.50;53.60;;;6.89;57.93;101100.50;12250455;19;19919;-87
2023/03/15 10:18:20;;;;;;;;;;;8.50;52.90;;;6.85;57.67;101108.38;12255973;19;19911;-86
2023/03/15 10:22:25;;;;;;;;;;;8.50;52.60;;;6.84;57.78;101111.03;12253385;19;19923;-87
2023/03/15 10:26:31;;;;;;;;;;;8.60;53.00;;;6.84;57.88;101118.84;12253504;19;19923;-86
2023/03/15 10:30:36;;;;;;;;;;;8.50;52.90;;;6.83;57.92;101117.13;12251702;19;19919;-86
2023/03/15 10:34:37;;;;;;;;;;;8.50;53.00;;;6.80;57.92;101104.25;12251083;19;19955;-86
2023/03/15 10:38:40;;;;;;;;;;;8.60;53.20;;;6.89;57.81;101122.13;12251831;19;19914;-86
2023/03/15 10:42:44;;;;;;;;;;;8.60;53.30;;;6.91;57.87;101120.31;12248501;19;19951;-87
2023/03/15 10:47:00;;;;;;;;;;;8.60;53.30;;;7.11;57.95;101129.19;12251844;19;19915;-87
2023/03/15 10:51:23;;;;;;;;;;;8.70;53.40;;;7.13;57.98;101130.84;12252820;19;19918;-86
2023/03/15 10:55:44;;;;;;;;;;;8.70;53.30;;;7.07;57.90;101116.31;12253862;19;19911;-87
2023/03/15 11:00:17;;;;;;;;;;;9.00;53.40;;;7.16;57.66;101127.28;12250037;19;19923;-87
2023/03/15 11:04:30;;;;;;;;;;;8.80;53.10;;;7.01;57.77;101077.56;12245539;19;19947;-87
2023/03/15 11:08:40;;;;;;;;;;;8.90;53.10;;;7.34;58.08;101112.78;12249902;19;20352;-86
2023/03/15 11:12:42;;;;;;;;;;;9.00;53.10;;;7.52;57.82;101130.31;12244731;19;19922;-86
2023/03/15 11:16:47;;;;;;;;;;;9.10;53.10;;;7.64;57.77;101123.81;12252161;19;20321;-86
2023/03/15 11:20:53;;;;;;;;;;;9.20;53.00;;;7.63;57.77;101120.38;12252403;19;19959;-86
2023/03/15 11:24:54;;;;;;;;;;;9.30;52.90;;;7.67;57.81;101121.09;12249042;19;19918;-87
2023/03/15 11:29:28;;;;;;;;;;;9.40;52.90;;;7.75;57.71;101135.53;12263751;19;19913;-88
2023/03/15 11:33:44;;;;;;;;;;;9.40;52.90;;;7.85;57.71;101137.78;12259701;19;19925;-86
2023/03/15 11:37:50;;;;;;;;;;;9.50;53.00;;;7.78;57.83;101103.38;12264286;19;19951;-86
2023/03/15 11:41:58;;;;;;;;;;;9.60;52.60;;;7.97;57.86;101108.75;12261994;19;19919;-87
2023/03/15 11:46:04;;;;;;;;;;;9.70;52.80;;;8.23;58.04;101128.53;12266171;19;19922;-87
2023/03/15 11:50:17;;;;;;;;;;;9.80;52.70;;;8.35;57.82;101125.44;12264429;19;19930;-85
2023/03/15 11:54:20;;;;;;;;;;;9.90;51.80;;;8.21;57.88;101093.94;12262264;19;19928;-86
2023/03/15 11:58:33;;;;;;;;;;;10.10;52.50;;;8.19;57.56;101083.56;12263112;19;19982;-86
2023/03/15 12:02:46;;;;;;;;;;;10.10;52.00;;;8.49;57.60;101131.91;12262075;19;19937;-86
2023/03/15 12:06:47;;;;;;;;;;;10.20;52.30;;;8.45;57.56;101145.94;12261151;19;19919;-86
2023/03/15 12:10:50;;;;;;;;;;;10.20;52.10;;;8.33;57.52;101121.22;12258595;19;19925;-84
2023/03/15 12:15:13;;;;;;;;;;;10.20;52.30;;;8.52;57.68;101155.19;12258845;19;19907;-87
2023/03/15 12:19:19;;;;;;;;;;;10.10;52.10;;;8.44;57.65;101133.84;12262015;19;20489;-85
2023/03/15 12:23:31;;;;;;;;;;;10.20;52.40;;;8.52;57.66;101142.19;12255885;19;19919;-85
2023/03/15 12:27:35;;;;;;;;;;;10.10;52.40;;;8.47;57.46;101128.50;12258351;19;19915;-85
2023/03/15 12:31:53;;;;;;;;;;;10.20;52.30;;;8.51;57.50;101136.13;12255819;19;19947;-86
2023/03/15 12:36:01;;;;;;;;;;;10.20;52.50;;;8.66;57.60;101155.47;12258567;19;19919;-85
2023/03/15 12:40:14;;;;;;;;;;;10.30;52.40;;;8.68;57.43;101150.22;12257216;19;19922;-86
2023/03/15 12:44:19;;;;;;;;;;;10.30;52.40;;;8.67;57.54;101159.81;12257134;19;19911;-85
2023/03/15 12:48:21;;;;;;;;;;;10.30;52.30;;;8.67;57.47;101146.78;12257420;19;19923;-86
2023/03/15 12:52:22;;;;;;;;;;;10.30;52.20;;;8.79;57.45;101148.88;12255448;19;19911;-87
2023/03/15 12:56:43;;;;;;;;;;;10.30;52.40;;;8.81;57.32;101147.06;12258482;19;19933;-86
2023/03/15 13:00:45;;;;;;;;;;;10.40;52.40;;;8.81;57.64;101141.00;12255157;19;19986;-87
2023/03/15 13:04:48;;;;;;;;;;;10.50;52.10;;;9.04;57.38;101172.13;12252018;19;19915;-88
2023/03/15 13:08:59;;;;;;;;;;;10.60;52.20;;;9.12;57.50;101182.25;12253822;19;19922;-86
2023/03/15 13:13:24;;;;;;;;;;;10.70;51.90;;;9.07;57.24;101173.78;12257564;19;19927;-87
2023/03/15 13:17:52;;;;;;;;;;;10.80;50.60;;;9.12;57.43;101176.19;12252346;19;19978;-85
2023/03/15 13:22:35;;;;;;;;;;;10.80;49.40;;;9.21;57.08;101192.28;12254272;19;19921;-85
2023/03/15 13:26:58;;;;;;;;;;;10.80;50.70;;;9.20;57.18;101187.97;12254876;19;19918;-85
2023/03/15 13:31:01;;;;;;;;;;;10.80;50.60;;;9.12;57.09;101182.25;12256017;19;19939;-86
2023/03/15 13:35:10;;;;;;;;;;;10.80;51.20;;;9.09;57.14;101169.34;12253218;19;19919;-85
2023/03/15 13:39:17;;;;;;;;;;;10.80;51.20;;;8.79;56.87;101138.44;12254384;19;19918;-86
2023/03/15 13:43:18;;;;;;;;;;;10.80;50.90;;;9.08;56.95;101184.13;12251450;19;19919;-86
2023/03/15 13:47:20;;;;;;;;;;;10.70;50.90;;;9.04;56.98;101181.72;12251834;19;19951;-86
2023/03/15 13:51:41;;;;;;;;;;;10.70;51.20;;;8.87;56.86;101156.38;12246887;19;20262;-85
2023/03/15 13:55:48;;;;;;;;;;;10.70;51.00;;;8.94;56.92;101173.44;12249367;19;19935;-86
2023/03/15 13:59:59;;;;;;;;;;;10.70;51.30;;;9.05;56.80;101188.63;12249279;19;19918;-85
2023/03/15 14:04:06;;;;;;;;;;;10.60;51.10;;;8.82;56.72;101148.75;12248201;19;19934;-86
2023/03/15 14:08:23;;;;;;;;;;;10.80;51.10;;;9.02;56.76;101193.97;12249610;19;20246;-86
2023/03/15 14:12:29;;;;;;;;;;;10.60;51.30;;;8.94;56.80;101176.06;12248326;19;19926;-86
2023/03/15 14:16:42;;;;;;;;;;;10.60;51.10;;;8.98;56.86;101189.78;12250019;19;19952;-86
2023/03/15 14:20:46;;;;;;;;;;;10.60;51.30;;;8.94;56.76;101180.38;12250145;19;20427;-87
2023/03/15 14:24:50;;;;;;;;;;;10.60;51.40;;;9.08;56.50;101228.44;12247222;19;19966;-86
2023/03/15 14:29:06;;;;;;;;;;;10.70;51.40;;;9.00;56.39;101245.28;12250934;19;19940;-86
2023/03/15 14:33:52;;;;;;;;;;;10.60;49.60;;;8.96;56.42;101260.16;12245723;19;19929;-86
2023/03/15 14:38:01;;;;;;;;;;;10.60;50.70;;;8.89;56.57;101257.91;12247687;19;19907;-86
2023/03/15 14:42:03;;;;;;;;;;;10.50;51.30;;;8.80;56.58;101244.31;12243208;19;19923;-88
2023/03/15 14:46:07;;;;;;;;;;;10.40;51.50;;;8.69;56.70;101217.00;12249253;19;19938;-87
2023/03/15 14:50:13;;;;;;;;;;;10.40;51.70;;;8.84;56.59;101238.06;12248299;19;19946;-87
2023/03/15 14:54:15;;;;;;;;;;;10.40;51.90;;;8.83;56.65;101225.09;12248524;19;19911;-86
2023/03/15 14:58:20;;;;;;;;;;;10.40;52.00;;;8.92;56.63;101237.78;12249327;19;19935;-86
2023/03/15 15:02:21;;;;;;;;;;;10.40;52.00;;;8.88;56.55;101222.31;12249476;19;19910;-87
2023/03/15 15:06:25;;;;;;;;;;;10.40;51.80;;;8.82;56.51;101221.66;12262728;19;19929;-86
2023/03/15 15:10:27;;;;;;;;;;;10.40;52.00;;;8.34;56.40;101134.16;12249542;19;19922;-86
2023/03/15 15:14:28;;;;;;;;;;;10.40;52.00;;;8.89;56.51;101224.03;12262207;19;19947;-86
2023/03/15 15:18:32;;;;;;;;;;;10.40;51.80;;;8.83;56.47;101212.94;12260174;19;19915;-86
2023/03/15 15:22:34;;;;;;;;;;;10.40;51.60;;;8.64;56.19;101191.13;12257257;19;19922;-86
2023/03/15 15:26:35;;;;;;;;;;;10.40;51.60;;;8.92;56.37;101252.56;12257250;19;19978;-86
2023/03/15 15:30:37;;;;;;;;;;;10.40;51.50;;;8.86;56.28;101254.50;12258889;19;19922;-86
2023/03/15 15:34:41;;;;;;;;;;;10.40;51.20;;;8.75;56.20;101235.84;12261231;19;19917;-86
2023/03/15 15:38:43;;;;;;;;;;;10.40;51.40;;;8.79;56.24;101253.03;12261468;19;19922;-86
2023/03/15 15:42:45;;;;;;;;;;;10.30;51.30;;;8.81;56.46;101246.00;12258198;19;19936;-86
2023/03/15 15:46:47;;;;;;;;;;;10.40;51.40;;;8.82;56.19;101250.31;12262054;19;19922;-86
2023/03/15 15:50:48;;;;;;;;;;;10.30;51.40;;;8.87;56.16;101257.94;12259401;19;20309;-86
2023/03/15 15:54:50;;;;;;;;;;;10.40;51.20;;;8.85;56.36;101252.78;12259512;19;19926;-86
2023/03/15 15:58:52;;;;;;;;;;;10.30;51.30;;;8.68;56.13;101229.16;12259514;19;19983;-86
2023/03/15 16:02:55;;;;;;;;;;;10.30;51.10;;;8.76;56.25;101250.56;12254246;19;20403;-86
2023/03/15 16:07:02;;;;;;;;;;;10.30;51.20;;;8.72;56.04;101242.91;12258861;19;21100;-85
2023/03/15 16:11:03;;;;;;;;;;;10.30;51.00;;;8.67;56.20;101244.84;12258241;19;19915;-85
2023/03/15 16:15:05;;;;;;;;;;;10.30;51.00;;;8.64;56.26;101254.50;12258207;19;19918;-85
2023/03/15 16:19:07;;;;;;;;;;;10.30;51.10;;;8.52;56.20;101249.75;12258958;19;19930;-85
2023/03/15 16:23:17;;;;;;;;;;;10.30;51.10;;;8.55;55.98;101265.25;12257855;19;19978;-86
2023/03/15 16:27:25;;;;;;;;;;;10.30;51.20;;;8.64;56.00;101290.94;12257158;19;19915;-85
2023/03/15 16:31:27;;;;;;;;;;;10.20;51.10;;;8.68;56.03;101306.44;12256386;19;19988;-86
2023/03/15 16:35:34;;;;;;;;;;;10.20;51.20;;;8.54;56.01;101297.38;12260037;19;19911;-86
2023/03/15 16:39:36;;;;;;;;;;;10.10;50.90;;;8.58;55.88;101311.97;12255314;19;19925;-85
2023/03/15 16:43:38;;;;;;;;;;;10.10;50.90;;;8.61;55.95;101352.66;12255220;19;19915;-86
2023/03/15 16:47:39;;;;;;;;;;;10.10;50.40;;;8.41;55.94;101362.06;12259669;19;19930;-86
2023/03/15 16:51:43;;;;;;;;;;;10.10;50.80;;;8.13;55.79;101341.34;12258271;19;19929;-85
2023/03/15 16:55:45;;;;;;;;;;;9.90;50.60;;;8.19;55.85;101385.34;12256832;19;19998;-86
2023/03/15 16:59:47;;;;;;;;;;;9.80;50.70;;;8.09;55.98;101378.75;12260899;19;19923;-85
2023/03/15 17:03:48;;;;;;;;;;;9.70;50.90;;;7.69;56.04;101319.47;12256721;19;20340;-85
2023/03/15 17:07:52;;;;;;;;;;;9.60;51.00;;;7.96;56.08;101377.47;12260884;19;19926;-85
2023/03/15 17:11:54;;;;;;;;;;;9.50;51.20;;;7.78;56.11;101360.75;12254161;19;19915;-85
2023/03/15 17:15:57;;;;;;;;;;;9.60;51.40;;;7.62;55.81;101333.59;12255857;19;19919;-85
2023/03/15 17:19:58;;;;;;;;;;;9.40;51.50;;;7.96;55.93;101406.09;12257124;19;19942;-85
2023/03/15 17:24:00;;;;;;;;;;;9.60;51.60;;;7.81;55.65;101394.47;12252279;19;19931;-86
2023/03/15 17:28:03;;;;;;;;;;;9.40;51.60;;;7.78;55.75;101393.69;12258969;19;19931;-86
2023/03/15 17:32:10;;;;;;;;;;;9.30;51.60;;;7.92;55.88;101426.16;12285771;19;19921;-86
2023/03/15 17:36:13;;;;;;;;;;;9.30;51.60;;;7.84;55.80;101428.16;12300262;19;19915;-85
2023/03/15 17:40:23;;;;;;;;;;;9.20;51.60;;;7.77;55.74;101431.84;12296244;19;19911;-86
2023/03/15 17:44:25;;;;;;;;;;;9.20;51.70;;;7.70;55.66;101425.16;12283967;19;19919;-86
2023/03/15 17:48:26;;;;;;;;;;;9.20;51.70;;;7.76;55.61;101446.59;12274057;19;19922;-86
2023/03/15 17:52:28;;;;;;;;;;;9.10;51.70;;;7.63;55.78;101432.28;12269504;19;19918;-86
2023/03/15 17:56:30;;;;;;;;;;;9.10;51.80;;;7.63;55.77;101437.47;12269037;19;19927;-86
2023/03/15 18:00:31;;;;;;;;;;;9.10;51.70;;;7.52;55.69;101442.16;12269565;19;19953;-85
2023/03/15 18:04:33;;;;;;;;;;;9.00;51.70;;;7.63;55.76;101462.63;12268756;19;19936;-85
2023/03/15 18:08:34;;;;;;;;;;;9.00;51.70;;;7.43;55.53;101439.88;12269744;19;19943;-85
2023/03/15 18:12:35;;;;;;;;;;;9.00;51.70;;;7.48;55.67;101463.94;12265733;19;19930;-85
2023/03/15 18:16:37;;;;;;;;;;;8.90;51.80;;;7.31;55.66;101435.88;12262686;19;19921;-85
2023/03/15 18:20:39;;;;;;;;;;;8.80;51.80;;;7.35;55.50;101466.06;12266605;19;19915;-85
2023/03/15 18:24:41;;;;;;;;;;;8.80;51.80;;;7.40;55.48;101482.38;12264550;19;19911;-85
2023/03/15 18:28:43;;;;;;;;;;;8.80;51.80;;;7.37;55.62;101484.19;12265128;19;19918;-85
2023/03/15 18:32:45;;;;;;;;;;;8.70;51.80;;;7.27;55.70;101478.44;12265010;19;19925;-87
2023/03/15 18:36:47;;;;;;;;;;;8.70;51.80;;;7.28;55.67;101483.56;12271439;19;19978;-85
2023/03/15 18:40:50;;;;;;;;;;;8.70;51.90;;;7.18;55.55;101483.88;12263424;19;19922;-86
2023/03/15 18:44:52;;;;;;;;;;;8.60;51.90;;;7.20;55.75;101498.53;12265475;19;19919;-86
2023/03/15 18:48:54;;;;;;;;;;;8.60;51.90;;;7.06;55.63;101495.47;12266402;19;19935;-86